sensor_id;sensor_type;location;lat;lon;timestamp;pressure;altitude;pressure_sealevel;temperature;humidity
7660;BME280;3872;47.902;8.162;2023-01-31T00:00:51;92677.56;;;1.60;100.00
7660;BME280;3872;47.902;8.162;2023-01-31T00:03:17;92676.44;;;1.56;100.00
7660;BME280;3872;47.902;8.162;2023-01-31T00:05:44;92679.75;;;1.63;100.00
7660;BME280;3872;47.902;8.162;2023-01-31T00:08:10;92669.53;;;1.80;100.00
7660;BME280;3872;47.902;8.162;2023-01-31T00:10:38;92669.63;;;1.07;100.00
7660;BME280;3872;47.902;8.162;2023-01-31T00:13:06;92671.59;;;1.11;100.00
7660;BME280;3872;47.902;8.162;2023-01-31T00:15:33;92672.03;;;1.56;100.00
7660;BME280;3872;47.902;8.162;2023-01-31T00:17:59;92669.16;;;1.46;100.00
7660;BME280;3872;47.902;8.162;2023-01-31T00:20:26;92667.09;;;1.96;100.00
7660;BME280;3872;47.902;8.162;2023-01-31T00:22:52;92675.88;;;1.84;100.00
7660;BME280;3872;47.902;8.162;2023-01-31T00:25:19;92666.91;;;1.80;100.00
7660;BME280;3872;47.902;8.162;2023-01-31T00:27:45;92667.31;;;1.95;100.00
7660;BME280;3872;47.902;8.162;2023-01-31T00:30:13;92663.91;;;1.94;100.00
7660;BME280;3872;47.902;8.162;2023-01-31T00:32:40;92656.41;;;2.05;100.00
7660;BME280;3872;47.902;8.162;2023-01-31T00:35:07;92654.28;;;1.24;100.00
7660;BME280;3872;47.902;8.162;2023-01-31T00:37:34;92666.47;;;0.87;100.00
7660;BME280;3872;47.902;8.162;2023-01-31T00:40:00;92664.75;;;0.99;100.00
7660;BME280;3872;47.902;8.162;2023-01-31T00:42:28;92660.00;;;1.62;100.00
7660;BME280;3872;47.902;8.162;2023-01-31T00:44:55;92655.09;;;1.84;100.00
7660;BME280;3872;47.902;8.162;2023-01-31T00:47:24;92656.63;;;1.43;100.00
7660;BME280;3872;47.902;8.162;2023-01-31T00:49:51;92655.16;;;1.17;100.00
7660;BME280;3872;47.902;8.162;2023-01-31T00:52:17;92659.22;;;0.77;100.00
7660;BME280;3872;47.902;8.162;2023-01-31T00:54:44;92653.91;;;1.38;100.00
7660;BME280;3872;47.902;8.162;2023-01-31T00:57:11;92654.59;;;0.97;100.00
7660;BME280;3872;47.902;8.162;2023-01-31T00:59:38;92645.16;;;1.81;100.00
7660;BME280;3872;47.902;8.162;2023-01-31T01:02:05;92655.16;;;1.17;100.00
7660;BME280;3872;47.902;8.162;2023-01-31T01:04:33;92649.94;;;1.54;100.00
7660;BME280;3872;47.902;8.162;2023-01-31T01:06:59;92648.81;;;2.03;100.00
7660;BME280;3872;47.902;8.162;2023-01-31T01:09:26;92645.66;;;1.60;100.00
7660;BME280;3872;47.902;8.162;2023-01-31T01:11:52;92645.16;;;1.81;100.00
7660;BME280;3872;47.902;8.162;2023-01-31T01:14:19;92641.66;;;1.87;100.00
7660;BME280;3872;47.902;8.162;2023-01-31T01:16:46;92641.25;;;1.90;100.00
7660;BME280;3872;47.902;8.162;2023-01-31T01:19:16;92641.63;;;2.05;100.00
7660;BME280;3872;47.902;8.162;2023-01-31T01:21:46;92634.72;;;2.11;100.00
7660;BME280;3872;47.902;8.162;2023-01-31T01:24:14;92631.56;;;2.09;100.00
7660;BME280;3872;47.902;8.162;2023-01-31T01:26:41;92625.78;;;2.07;100.00
7660;BME280;3872;47.902;8.162;2023-01-31T01:29:09;92629.19;;;1.54;100.00
7660;BME280;3872;47.902;8.162;2023-01-31T01:31:36;92623.69;;;1.74;100.00
7660;BME280;3872;47.902;8.162;2023-01-31T01:34:05;92630.47;;;1.75;100.00
7660;BME280;3872;47.902;8.162;2023-01-31T01:36:32;92629.81;;;1.79;100.00
7660;BME280;3872;47.902;8.162;2023-01-31T01:39:02;92638.75;;;1.83;100.00
7660;BME280;3872;47.902;8.162;2023-01-31T01:41:29;92633.97;;;1.69;100.00
7660;BME280;3872;47.902;8.162;2023-01-31T01:43:58;92640.25;;;1.61;100.00
7660;BME280;3872;47.902;8.162;2023-01-31T01:46:28;92643.47;;;1.86;100.00
7660;BME280;3872;47.902;8.162;2023-01-31T01:48:59;92639.44;;;1.90;100.00
7660;BME280;3872;47.902;8.162;2023-01-31T01:51:27;92629.28;;;1.89;100.00
7660;BME280;3872;47.902;8.162;2023-01-31T01:53:58;92641.56;;;1.82;100.00
7660;BME280;3872;47.902;8.162;2023-01-31T01:56:29;92634.56;;;1.94;100.00
7660;BME280;3872;47.902;8.162;2023-01-31T01:59:04;92616.88;;;1.91;100.00
7660;BME280;3872;47.902;8.162;2023-01-31T02:01:35;92623.88;;;1.90;100.00
7660;BME280;3872;47.902;8.162;2023-01-31T02:04:10;92631.00;;;1.35;100.00
7660;BME280;3872;47.902;8.162;2023-01-31T02:06:41;92628.84;;;1.32;100.00
7660;BME280;3872;47.902;8.162;2023-01-31T02:09:11;92623.50;;;1.87;100.00
7660;BME280;3872;47.902;8.162;2023-01-31T02:11:42;92627.78;;;1.81;100.00
7660;BME280;3872;47.902;8.162;2023-01-31T02:14:09;92635.84;;;2.03;100.00
7660;BME280;3872;47.902;8.162;2023-01-31T02:16:37;92628.38;;;1.95;100.00
7660;BME280;3872;47.902;8.162;2023-01-31T02:19:09;92629.84;;;1.91;100.00
7660;BME280;3872;47.902;8.162;2023-01-31T02:22:06;92633.00;;;1.93;100.00
7660;BME280;3872;47.902;8.162;2023-01-31T02:25:15;92631.50;;;1.85;100.00
7660;BME280;3872;47.902;8.162;2023-01-31T02:28:32;92630.41;;;1.51;100.00
7660;BME280;3872;47.902;8.162;2023-01-31T02:34:06;92641.38;;;1.35;100.00
7660;BME280;3872;47.902;8.162;2023-01-31T02:36:42;92635.34;;;1.23;100.00
7660;BME280;3872;47.902;8.162;2023-01-31T02:39:20;92627.84;;;1.33;100.00
7660;BME280;3872;47.902;8.162;2023-01-31T02:41:56;92632.47;;;1.31;100.00
7660;BME280;3872;47.902;8.162;2023-01-31T02:44:30;92626.34;;;1.26;100.00
7660;BME280;3872;47.902;8.162;2023-01-31T02:47:22;92633.34;;;1.25;100.00
7660;BME280;3872;47.902;8.162;2023-01-31T02:49:56;92625.97;;;1.22;100.00
7660;BME280;3872;47.902;8.162;2023-01-31T02:52:30;92628.66;;;1.34;100.00
7660;BME280;3872;47.902;8.162;2023-01-31T02:55:09;92626.97;;;1.39;100.00
7660;BME280;3872;47.902;8.162;2023-01-31T02:57:57;92625.06;;;1.35;100.00
7660;BME280;3872;47.902;8.162;2023-01-31T03:00:26;92638.88;;;1.29;100.00
7660;BME280;3872;47.902;8.162;2023-01-31T03:02:54;92646.22;;;1.32;100.00
7660;BME280;3872;47.902;8.162;2023-01-31T03:05:22;92649.84;;;1.72;100.00
7660;BME280;3872;47.902;8.162;2023-01-31T03:07:51;92655.91;;;1.36;100.00
7660;BME280;3872;47.902;8.162;2023-01-31T03:10:44;92652.56;;;1.66;100.00
7660;BME280;3872;47.902;8.162;2023-01-31T03:13:24;92654.84;;;1.74;100.00
7660;BME280;3872;47.902;8.162;2023-01-31T03:16:00;92652.25;;;1.44;100.00
7660;BME280;3872;47.902;8.162;2023-01-31T03:18:53;92657.34;;;1.80;100.00
7660;BME280;3872;47.902;8.162;2023-01-31T03:21:27;92657.03;;;1.88;100.00
7660;BME280;3872;47.902;8.162;2023-01-31T03:23:56;92655.75;;;1.79;100.00
7660;BME280;3872;47.902;8.162;2023-01-31T03:26:24;92649.56;;;1.80;100.00
7660;BME280;3872;47.902;8.162;2023-01-31T03:28:52;92645.63;;;1.89;100.00
7660;BME280;3872;47.902;8.162;2023-01-31T03:31:24;92650.25;;;1.87;100.00
7660;BME280;3872;47.902;8.162;2023-01-31T03:33:54;92647.84;;;1.74;100.00
7660;BME280;3872;47.902;8.162;2023-01-31T03:36:29;92653.31;;;1.84;100.00
7660;BME280;3872;47.902;8.162;2023-01-31T03:39:13;92644.97;;;1.64;100.00
7660;BME280;3872;47.902;8.162;2023-01-31T03:41:49;92658.13;;;0.85;100.00
7660;BME280;3872;47.902;8.162;2023-01-31T03:44:25;92652.84;;;1.57;100.00
7660;BME280;3872;47.902;8.162;2023-01-31T03:47:02;92650.63;;;1.61;100.00
7660;BME280;3872;47.902;8.162;2023-01-31T03:49:31;92649.31;;;1.70;100.00
7660;BME280;3872;47.902;8.162;2023-01-31T03:52:03;92653.03;;;1.74;100.00
7660;BME280;3872;47.902;8.162;2023-01-31T03:54:33;92660.53;;;1.64;100.00
7660;BME280;3872;47.902;8.162;2023-01-31T03:57:05;92669.66;;;1.55;100.00
7660;BME280;3872;47.902;8.162;2023-01-31T03:59:37;92664.88;;;1.40;100.00
7660;BME280;3872;47.902;8.162;2023-01-31T04:02:09;92668.25;;;1.23;100.00
7660;BME280;3872;47.902;8.162;2023-01-31T04:04:39;92665.66;;;1.23;100.00
7660;BME280;3872;47.902;8.162;2023-01-31T04:07:09;92660.78;;;1.33;100.00
7660;BME280;3872;47.902;8.162;2023-01-31T04:09:37;92654.03;;;1.43;100.00
7660;BME280;3872;47.902;8.162;2023-01-31T04:12:04;92644.66;;;1.42;100.00
7660;BME280;3872;47.902;8.162;2023-01-31T04:14:31;92647.75;;;1.51;100.00
7660;BME280;3872;47.902;8.162;2023-01-31T04:16:57;92641.56;;;1.52;100.00
7660;BME280;3872;47.902;8.162;2023-01-31T04:19:24;92644.88;;;0.93;100.00
7660;BME280;3872;47.902;8.162;2023-01-31T04:21:50;92651.34;;;1.02;100.00
7660;BME280;3872;47.902;8.162;2023-01-31T04:24:18;92644.63;;;1.31;100.00
7660;BME280;3872;47.902;8.162;2023-01-31T04:26:45;92647.53;;;0.86;100.00
7660;BME280;3872;47.902;8.162;2023-01-31T04:29:11;92646.16;;;1.50;100.00
7660;BME280;3872;47.902;8.162;2023-01-31T04:31:38;92645.44;;;1.61;100.00
7660;BME280;3872;47.902;8.162;2023-01-31T04:34:05;92649.47;;;1.27;100.00
7660;BME280;3872;47.902;8.162;2023-01-31T04:36:32;92649.41;;;1.34;100.00
7660;BME280;3872;47.902;8.162;2023-01-31T04:38:59;92656.88;;;1.42;100.00
7660;BME280;3872;47.902;8.162;2023-01-31T04:41:27;92668.06;;;0.45;100.00
7660;BME280;3872;47.902;8.162;2023-01-31T04:43:54;92668.59;;;0.71;100.00
7660;BME280;3872;47.902;8.162;2023-01-31T04:46:21;92663.53;;;1.20;100.00
7660;BME280;3872;47.902;8.162;2023-01-31T04:48:47;92681.38;;;0.91;100.00
7660;BME280;3872;47.902;8.162;2023-01-31T04:51:14;92676.06;;;1.04;100.00
7660;BME280;3872;47.902;8.162;2023-01-31T04:53:42;92680.22;;;0.69;100.00
7660;BME280;3872;47.902;8.162;2023-01-31T04:56:09;92678.09;;;0.59;100.00
7660;BME280;3872;47.902;8.162;2023-01-31T04:58:37;92681.88;;;1.18;100.00
7660;BME280;3872;47.902;8.162;2023-01-31T05:01:05;92680.94;;;1.31;100.00
7660;BME280;3872;47.902;8.162;2023-01-31T05:03:32;92682.34;;;1.45;100.00
7660;BME280;3872;47.902;8.162;2023-01-31T05:05:59;92680.84;;;1.55;100.00
7660;BME280;3872;47.902;8.162;2023-01-31T05:08:25;92677.34;;;1.32;100.00
7660;BME280;3872;47.902;8.162;2023-01-31T05:10:56;92679.41;;;1.41;100.00
7660;BME280;3872;47.902;8.162;2023-01-31T05:13:23;92680.75;;;1.44;100.00
7660;BME280;3872;47.902;8.162;2023-01-31T05:15:51;92686.25;;;1.54;100.00
7660;BME280;3872;47.902;8.162;2023-01-31T05:18:17;92683.94;;;1.46;100.00
7660;BME280;3872;47.902;8.162;2023-01-31T05:20:44;92679.03;;;1.38;100.00
7660;BME280;3872;47.902;8.162;2023-01-31T05:23:10;92672.81;;;1.27;100.00
7660;BME280;3872;47.902;8.162;2023-01-31T05:25:37;92679.06;;;1.01;100.00
7660;BME280;3872;47.902;8.162;2023-01-31T05:28:04;92672.50;;;1.17;100.00
7660;BME280;3872;47.902;8.162;2023-01-31T05:30:31;92665.75;;;1.34;100.00
7660;BME280;3872;47.902;8.162;2023-01-31T05:32:59;92664.66;;;1.24;100.00
7660;BME280;3872;47.902;8.162;2023-01-31T05:35:26;92679.22;;;1.06;100.00
7660;BME280;3872;47.902;8.162;2023-01-31T05:37:52;92672.00;;;1.27;100.00
7660;BME280;3872;47.902;8.162;2023-01-31T05:40:19;92679.75;;;1.45;100.00
7660;BME280;3872;47.902;8.162;2023-01-31T05:42:51;92687.19;;;1.41;100.00
7660;BME280;3872;47.902;8.162;2023-01-31T05:45:18;92677.47;;;1.37;100.00
7660;BME280;3872;47.902;8.162;2023-01-31T05:47:45;92683.31;;;1.32;100.00
7660;BME280;3872;47.902;8.162;2023-01-31T05:50:13;92678.72;;;0.98;100.00
7660;BME280;3872;47.902;8.162;2023-01-31T05:52:40;92682.66;;;0.82;100.00
7660;BME280;3872;47.902;8.162;2023-01-31T05:55:07;92687.69;;;0.34;100.00
7660;BME280;3872;47.902;8.162;2023-01-31T05:57:34;92683.00;;;0.49;100.00
7660;BME280;3872;47.902;8.162;2023-01-31T06:00:01;92682.88;;;0.37;100.00
7660;BME280;3872;47.902;8.162;2023-01-31T06:02:37;92688.78;;;0.45;100.00
7660;BME280;3872;47.902;8.162;2023-01-31T06:05:04;92680.69;;;-0.15;100.00
7660;BME280;3872;47.902;8.162;2023-01-31T06:07:32;92683.19;;;0.23;100.00
7660;BME280;3872;47.902;8.162;2023-01-31T06:09:58;92692.72;;;-0.34;100.00
7660;BME280;3872;47.902;8.162;2023-01-31T06:12:25;92683.97;;;-0.02;100.00
7660;BME280;3872;47.902;8.162;2023-01-31T06:14:53;92691.50;;;-0.25;100.00
7660;BME280;3872;47.902;8.162;2023-01-31T06:17:19;92701.47;;;-0.35;100.00
7660;BME280;3872;47.902;8.162;2023-01-31T06:19:48;92706.13;;;-0.12;100.00
7660;BME280;3872;47.902;8.162;2023-01-31T06:22:14;92705.22;;;-0.24;100.00
7660;BME280;3872;47.902;8.162;2023-01-31T06:24:42;92708.97;;;-0.20;100.00
7660;BME280;3872;47.902;8.162;2023-01-31T06:27:09;92717.84;;;-0.86;100.00
7660;BME280;3872;47.902;8.162;2023-01-31T06:29:35;92717.72;;;-1.17;100.00
7660;BME280;3872;47.902;8.162;2023-01-31T06:32:02;92723.19;;;-0.87;100.00
7660;BME280;3872;47.902;8.162;2023-01-31T06:34:29;92725.88;;;-0.62;100.00
7660;BME280;3872;47.902;8.162;2023-01-31T06:36:55;92725.22;;;-0.45;100.00
7660;BME280;3872;47.902;8.162;2023-01-31T06:39:23;92725.63;;;-0.48;100.00
7660;BME280;3872;47.902;8.162;2023-01-31T06:41:51;92731.44;;;-1.30;100.00
7660;BME280;3872;47.902;8.162;2023-01-31T06:44:18;92737.53;;;-1.04;100.00
7660;BME280;3872;47.902;8.162;2023-01-31T06:46:45;92729.66;;;-1.29;100.00
7660;BME280;3872;47.902;8.162;2023-01-31T06:49:11;92741.72;;;-1.03;100.00
7660;BME280;3872;47.902;8.162;2023-01-31T06:51:38;92739.91;;;-0.90;100.00
7660;BME280;3872;47.902;8.162;2023-01-31T06:54:05;92740.91;;;-0.97;100.00
7660;BME280;3872;47.902;8.162;2023-01-31T06:56:32;92733.34;;;-0.99;100.00
7660;BME280;3872;47.902;8.162;2023-01-31T06:59:00;92753.09;;;-1.31;100.00
7660;BME280;3872;47.902;8.162;2023-01-31T07:01:26;92738.34;;;-1.10;100.00
7660;BME280;3872;47.902;8.162;2023-01-31T07:03:53;92749.06;;;-1.13;100.00
7660;BME280;3872;47.902;8.162;2023-01-31T07:06:19;92743.94;;;-1.27;100.00
7660;BME280;3872;47.902;8.162;2023-01-31T07:08:47;92743.78;;;-1.58;100.00
7660;BME280;3872;47.902;8.162;2023-01-31T07:11:13;92729.47;;;-1.61;100.00
7660;BME280;3872;47.902;8.162;2023-01-31T07:13:40;92732.25;;;-1.88;100.00
7660;BME280;3872;47.902;8.162;2023-01-31T07:16:08;92736.22;;;-1.53;100.00
7660;BME280;3872;47.902;8.162;2023-01-31T07:18:34;92744.19;;;-1.74;100.00
7660;BME280;3872;47.902;8.162;2023-01-31T07:21:01;92743.56;;;-1.70;100.00
7660;BME280;3872;47.902;8.162;2023-01-31T07:23:27;92742.38;;;-1.61;100.00
7660;BME280;3872;47.902;8.162;2023-01-31T07:25:54;92742.00;;;-1.71;100.00
7660;BME280;3872;47.902;8.162;2023-01-31T07:28:21;92748.34;;;-1.80;100.00
7660;BME280;3872;47.902;8.162;2023-01-31T07:30:47;92737.63;;;-1.50;100.00
7660;BME280;3872;47.902;8.162;2023-01-31T07:33:17;92742.00;;;-1.51;100.00
7660;BME280;3872;47.902;8.162;2023-01-31T07:35:44;92739.81;;;-1.61;100.00
7660;BME280;3872;47.902;8.162;2023-01-31T07:38:10;92736.25;;;-1.60;100.00
7660;BME280;3872;47.902;8.162;2023-01-31T07:40:37;92735.63;;;-1.88;100.00
7660;BME280;3872;47.902;8.162;2023-01-31T07:43:04;92739.38;;;-2.17;100.00
7660;BME280;3872;47.902;8.162;2023-01-31T07:45:32;92733.56;;;-2.39;100.00
7660;BME280;3872;47.902;8.162;2023-01-31T07:47:59;92734.81;;;-2.21;100.00
7660;BME280;3872;47.902;8.162;2023-01-31T07:50:26;92736.06;;;-1.71;100.00
7660;BME280;3872;47.902;8.162;2023-01-31T07:52:53;92739.59;;;-1.52;100.00
7660;BME280;3872;47.902;8.162;2023-01-31T07:55:22;92737.41;;;-1.82;100.00
7660;BME280;3872;47.902;8.162;2023-01-31T07:57:48;92735.22;;;-1.45;100.00
7660;BME280;3872;47.902;8.162;2023-01-31T08:00:15;92734.63;;;-1.47;100.00
7660;BME280;3872;47.902;8.162;2023-01-31T08:03:00;92737.22;;;-1.54;100.00
7660;BME280;3872;47.902;8.162;2023-01-31T08:05:46;92736.84;;;-1.51;100.00
7660;BME280;3872;47.902;8.162;2023-01-31T08:08:13;92748.94;;;-1.65;100.00
7660;BME280;3872;47.902;8.162;2023-01-31T08:10:39;92752.09;;;-1.63;100.00
7660;BME280;3872;47.902;8.162;2023-01-31T08:13:06;92749.72;;;-1.77;100.00
7660;BME280;3872;47.902;8.162;2023-01-31T08:15:35;92755.09;;;-1.46;100.00
7660;BME280;3872;47.902;8.162;2023-01-31T08:18:01;92745.50;;;-1.12;100.00
7660;BME280;3872;47.902;8.162;2023-01-31T08:20:28;92751.44;;;-1.05;100.00
7660;BME280;3872;47.902;8.162;2023-01-31T08:22:56;92743.13;;;-1.21;100.00
7660;BME280;3872;47.902;8.162;2023-01-31T08:25:24;92740.22;;;-1.44;100.00
7660;BME280;3872;47.902;8.162;2023-01-31T08:27:53;92748.16;;;-1.72;100.00
7660;BME280;3872;47.902;8.162;2023-01-31T08:30:19;92758.06;;;-1.36;100.00
7660;BME280;3872;47.902;8.162;2023-01-31T08:32:46;92757.06;;;-1.35;100.00
7660;BME280;3872;47.902;8.162;2023-01-31T08:35:12;92756.50;;;-1.43;100.00
7660;BME280;3872;47.902;8.162;2023-01-31T08:37:39;92757.28;;;-0.59;100.00
7660;BME280;3872;47.902;8.162;2023-01-31T08:40:08;92750.88;;;-0.43;100.00
7660;BME280;3872;47.902;8.162;2023-01-31T08:42:35;92750.25;;;-0.01;100.00
7660;BME280;3872;47.902;8.162;2023-01-31T08:45:02;92753.41;;;0.02;100.00
7660;BME280;3872;47.902;8.162;2023-01-31T08:47:29;92758.13;;;0.11;100.00
7660;BME280;3872;47.902;8.162;2023-01-31T08:49:55;92745.22;;;0.61;100.00
7660;BME280;3872;47.902;8.162;2023-01-31T08:52:22;92740.81;;;0.86;100.00
7660;BME280;3872;47.902;8.162;2023-01-31T08:54:48;92741.72;;;1.16;100.00
7660;BME280;3872;47.902;8.162;2023-01-31T08:57:16;92742.28;;;1.00;100.00
7660;BME280;3872;47.902;8.162;2023-01-31T08:59:45;92732.13;;;1.17;100.00
7660;BME280;3872;47.902;8.162;2023-01-31T09:02:11;92725.69;;;1.74;100.00
7660;BME280;3872;47.902;8.162;2023-01-31T09:04:38;92716.44;;;2.08;100.00
7660;BME280;3872;47.902;8.162;2023-01-31T09:07:04;92716.41;;;1.96;100.00
7660;BME280;3872;47.902;8.162;2023-01-31T09:09:31;92720.81;;;2.49;100.00
7660;BME280;3872;47.902;8.162;2023-01-31T09:11:57;92713.91;;;3.36;100.00
7660;BME280;3872;47.902;8.162;2023-01-31T09:14:25;92714.53;;;3.67;98.99
7660;BME280;3872;47.902;8.162;2023-01-31T09:16:51;92716.91;;;3.57;97.15
7660;BME280;3872;47.902;8.162;2023-01-31T09:19:18;92719.03;;;3.71;99.06
7660;BME280;3872;47.902;8.162;2023-01-31T09:21:47;92721.38;;;4.13;95.28
7660;BME280;3872;47.902;8.162;2023-01-31T09:24:13;92723.44;;;4.11;93.81
7660;BME280;3872;47.902;8.162;2023-01-31T09:26:40;92707.22;;;4.37;94.84
7660;BME280;3872;47.902;8.162;2023-01-31T09:29:06;92707.16;;;4.65;91.57
7660;BME280;3872;47.902;8.162;2023-01-31T09:31:34;92711.56;;;4.65;88.50
7660;BME280;3872;47.902;8.162;2023-01-31T09:34:01;92716.91;;;3.97;98.87
7660;BME280;3872;47.902;8.162;2023-01-31T09:36:27;92722.94;;;3.97;100.00
7660;BME280;3872;47.902;8.162;2023-01-31T09:38:54;92705.78;;;4.29;100.00
7660;BME280;3872;47.902;8.162;2023-01-31T09:41:25;92714.75;;;4.22;97.79
7660;BME280;3872;47.902;8.162;2023-01-31T09:43:57;92714.38;;;4.30;100.00
7660;BME280;3872;47.902;8.162;2023-01-31T09:46:29;92712.97;;;5.06;91.58
7660;BME280;3872;47.902;8.162;2023-01-31T09:49:00;92703.91;;;4.75;99.23
7660;BME280;3872;47.902;8.162;2023-01-31T09:51:31;92704.03;;;5.19;90.23
7660;BME280;3872;47.902;8.162;2023-01-31T09:53:59;92707.44;;;5.63;92.51
7660;BME280;3872;47.902;8.162;2023-01-31T09:56:31;92706.00;;;5.94;89.46
7660;BME280;3872;47.902;8.162;2023-01-31T09:59:06;92725.84;;;5.51;87.22
7660;BME280;3872;47.902;8.162;2023-01-31T10:01:43;92714.31;;;5.08;88.45
7660;BME280;3872;47.902;8.162;2023-01-31T10:04:29;92712.94;;;5.23;86.45
7660;BME280;3872;47.902;8.162;2023-01-31T10:07:04;92709.53;;;6.31;83.40
7660;BME280;3872;47.902;8.162;2023-01-31T10:09:34;92707.50;;;6.65;84.02
7660;BME280;3872;47.902;8.162;2023-01-31T10:12:08;92703.94;;;6.49;81.10
7660;BME280;3872;47.902;8.162;2023-01-31T10:14:41;92701.16;;;7.30;76.04
7660;BME280;3872;47.902;8.162;2023-01-31T10:17:15;92704.81;;;6.92;78.24
7660;BME280;3872;47.902;8.162;2023-01-31T10:19:52;92699.38;;;6.98;79.50
7660;BME280;3872;47.902;8.162;2023-01-31T10:22:25;92692.94;;;6.47;78.78
7660;BME280;3872;47.902;8.162;2023-01-31T10:24:56;92694.59;;;7.27;71.93
7660;BME280;3872;47.902;8.162;2023-01-31T10:27:34;92682.78;;;7.25;67.13
7660;BME280;3872;47.902;8.162;2023-01-31T10:30:14;92690.03;;;6.76;61.81
7660;BME280;3872;47.902;8.162;2023-01-31T10:32:43;92686.50;;;6.92;63.26
7660;BME280;3872;47.902;8.162;2023-01-31T10:35:18;92688.78;;;7.20;59.65
7660;BME280;3872;47.902;8.162;2023-01-31T10:37:49;92688.78;;;6.46;56.29
7660;BME280;3872;47.902;8.162;2023-01-31T10:40:21;92687.47;;;6.49;58.86
7660;BME280;3872;47.902;8.162;2023-01-31T10:42:51;92686.25;;;6.61;59.87
7660;BME280;3872;47.902;8.162;2023-01-31T10:45:21;92685.81;;;7.06;57.24
7660;BME280;3872;47.902;8.162;2023-01-31T10:47:56;92682.50;;;6.20;58.28
7660;BME280;3872;47.902;8.162;2023-01-31T10:50:30;92679.94;;;5.77;60.69
7660;BME280;3872;47.902;8.162;2023-01-31T10:53:14;92667.22;;;6.07;60.97
7660;BME280;3872;47.902;8.162;2023-01-31T10:55:54;92665.91;;;6.32;57.16
7660;BME280;3872;47.902;8.162;2023-01-31T10:58:24;92663.09;;;6.75;56.86
7660;BME280;3872;47.902;8.162;2023-01-31T11:00:51;92651.00;;;6.32;56.58
7660;BME280;3872;47.902;8.162;2023-01-31T11:03:18;92656.81;;;6.76;57.80
7660;BME280;3872;47.902;8.162;2023-01-31T11:05:48;92652.50;;;5.96;68.53
7660;BME280;3872;47.902;8.162;2023-01-31T11:08:28;92664.03;;;6.59;59.74
7660;BME280;3872;47.902;8.162;2023-01-31T11:10:57;92665.66;;;6.65;55.88
7660;BME280;3872;47.902;8.162;2023-01-31T11:13:29;92668.22;;;4.97;68.70
7660;BME280;3872;47.902;8.162;2023-01-31T11:15:56;92664.09;;;5.62;64.24
7660;BME280;3872;47.902;8.162;2023-01-31T11:18:26;92664.88;;;5.40;67.06
7660;BME280;3872;47.902;8.162;2023-01-31T11:20:57;92672.06;;;5.11;69.58
7660;BME280;3872;47.902;8.162;2023-01-31T11:23:26;92677.41;;;5.00;74.11
7660;BME280;3872;47.902;8.162;2023-01-31T11:25:54;92679.34;;;4.54;79.68
7660;BME280;3872;47.902;8.162;2023-01-31T11:28:23;92684.63;;;5.75;70.41
7660;BME280;3872;47.902;8.162;2023-01-31T11:30:54;92686.44;;;4.42;80.18
7660;BME280;3872;47.902;8.162;2023-01-31T11:33:38;92690.31;;;3.94;84.85
7660;BME280;3872;47.902;8.162;2023-01-31T11:36:10;92670.56;;;4.77;79.62
7660;BME280;3872;47.902;8.162;2023-01-31T11:38:37;92658.25;;;4.72;81.56
7660;BME280;3872;47.902;8.162;2023-01-31T11:41:24;92664.53;;;5.32;73.20
7660;BME280;3872;47.902;8.162;2023-01-31T11:44:09;92671.81;;;4.24;81.98
7660;BME280;3872;47.902;8.162;2023-01-31T11:46:41;92674.25;;;5.58;79.43
7660;BME280;3872;47.902;8.162;2023-01-31T11:49:10;92693.75;;;5.34;76.41
7660;BME280;3872;47.902;8.162;2023-01-31T11:51:39;92674.69;;;6.89;71.35
7660;BME280;3872;47.902;8.162;2023-01-31T11:54:06;92672.81;;;7.17;63.87
7660;BME280;3872;47.902;8.162;2023-01-31T11:56:34;92674.09;;;5.70;75.65
7660;BME280;3872;47.902;8.162;2023-01-31T11:59:04;92666.97;;;5.60;75.33
7660;BME280;3872;47.902;8.162;2023-01-31T12:01:35;92672.47;;;3.58;92.93
7660;BME280;3872;47.902;8.162;2023-01-31T12:04:14;92659.91;;;5.82;82.77
7660;BME280;3872;47.902;8.162;2023-01-31T12:06:55;92655.31;;;6.48;72.81
7660;BME280;3872;47.902;8.162;2023-01-31T12:09:24;92653.34;;;4.43;86.03
7660;BME280;3872;47.902;8.162;2023-01-31T12:11:52;92655.91;;;4.93;83.03
7660;BME280;3872;47.902;8.162;2023-01-31T12:14:19;92668.22;;;4.97;77.97
7660;BME280;3872;47.902;8.162;2023-01-31T12:16:47;92670.34;;;4.00;88.06
7660;BME280;3872;47.902;8.162;2023-01-31T12:19:28;92663.59;;;5.21;79.48
7660;BME280;3872;47.902;8.162;2023-01-31T12:22:05;92663.31;;;5.39;73.87
7660;BME280;3872;47.902;8.162;2023-01-31T12:24:39;92651.84;;;4.80;75.84
7660;BME280;3872;47.902;8.162;2023-01-31T12:27:21;92639.03;;;5.17;75.94
7660;BME280;3872;47.902;8.162;2023-01-31T12:30:17;92628.38;;;3.97;85.18
7660;BME280;3872;47.902;8.162;2023-01-31T12:33:00;92638.94;;;3.90;85.67
7660;BME280;3872;47.902;8.162;2023-01-31T12:35:38;92634.84;;;3.94;84.79
7660;BME280;3872;47.902;8.162;2023-01-31T12:38:18;92614.00;;;3.94;87.19
7660;BME280;3872;47.902;8.162;2023-01-31T12:40:53;92619.16;;;3.89;87.22
7660;BME280;3872;47.902;8.162;2023-01-31T12:43:51;92606.81;;;3.84;89.99
7660;BME280;3872;47.902;8.162;2023-01-31T12:46:26;92583.50;;;5.22;80.09
7660;BME280;3872;47.902;8.162;2023-01-31T12:49:04;92574.69;;;5.49;76.43
7660;BME280;3872;47.902;8.162;2023-01-31T12:51:41;92592.34;;;4.99;79.34
7660;BME280;3872;47.902;8.162;2023-01-31T12:54:22;92597.88;;;4.25;85.82
7660;BME280;3872;47.902;8.162;2023-01-31T12:57:03;92589.22;;;5.19;80.29
7660;BME280;3872;47.902;8.162;2023-01-31T12:59:41;92584.53;;;5.42;77.03
7660;BME280;3872;47.902;8.162;2023-01-31T13:02:20;92580.59;;;5.67;77.11
7660;BME280;3872;47.902;8.162;2023-01-31T13:04:52;92584.28;;;5.22;75.42
7660;BME280;3872;47.902;8.162;2023-01-31T13:07:26;92596.16;;;3.69;89.34
7660;BME280;3872;47.902;8.162;2023-01-31T13:09:58;92589.72;;;3.88;89.59
7660;BME280;3872;47.902;8.162;2023-01-31T13:12:28;92596.97;;;4.03;87.83
7660;BME280;3872;47.902;8.162;2023-01-31T13:15:01;92599.34;;;4.05;89.52
7660;BME280;3872;47.902;8.162;2023-01-31T13:17:31;92600.28;;;3.25;90.80
7660;BME280;3872;47.902;8.162;2023-01-31T13:20:02;92590.19;;;4.02;88.37
7660;BME280;3872;47.902;8.162;2023-01-31T13:22:38;92594.16;;;3.31;93.22
7660;BME280;3872;47.902;8.162;2023-01-31T13:25:15;92583.19;;;2.89;100.00
7660;BME280;3872;47.902;8.162;2023-01-31T13:27:52;92575.97;;;2.91;100.00
7660;BME280;3872;47.902;8.162;2023-01-31T13:30:32;92582.50;;;2.94;100.00
7660;BME280;3872;47.902;8.162;2023-01-31T13:33:00;92590.84;;;3.07;100.00
7660;BME280;3872;47.902;8.162;2023-01-31T13:35:36;92581.91;;;4.22;94.64
7660;BME280;3872;47.902;8.162;2023-01-31T13:38:07;92603.34;;;3.22;100.00
7660;BME280;3872;47.902;8.162;2023-01-31T13:40:43;92600.94;;;4.22;97.05
7660;BME280;3872;47.902;8.162;2023-01-31T13:43:13;92592.56;;;4.54;91.81